Time;durP1;ratioP1;P1;durP2;ratioP2;P2;SDS_P1;SDS_P2;PMS_P1;PMS_P2;Temp;Humidity;BMP_temperature;BMP_pressure;BME280_temperature;BME280_humidity;BME280_pressure;Samples;Min_cycle;Max_cycle;Signal;HPM_P1;HPM_P2
2023/03/20 00:02:21;;;;;;;7.10;4.50;;;7.10;93.30;;;;;;5033179;28;20029;-43
2023/03/20 00:04:48;;;;;;;6.75;3.85;;;7.10;93.20;;;;;;5033015;28;20022;-43
2023/03/20 00:07:14;;;;;;;5.53;3.60;;;7.20;93.30;;;;;;5032837;28;20017;-44
2023/03/20 00:09:41;;;;;;;5.07;2.90;;;7.20;93.20;;;;;;5033150;28;20390;-44
2023/03/20 00:12:15;;;;;;;5.82;3.28;;;7.10;93.10;;;;;;5032623;28;20041;-42
2023/03/20 00:14:42;;;;;;;9.60;4.40;;;7.10;93.10;;;;;;5033062;28;20025;-42
2023/03/20 00:17:19;;;;;;;4.90;2.97;;;7.10;93.10;;;;;;5048181;28;20123;-43
2023/03/20 00:19:46;;;;;;;5.40;2.47;;;7.10;93.20;;;;;;5032861;28;20048;-44
2023/03/20 00:22:14;;;;;;;5.57;3.20;;;7.00;93.10;;;;;;5032830;28;20048;-43
2023/03/20 00:24:41;;;;;;;4.43;2.80;;;7.10;93.20;;;;;;5041977;28;20029;-43
2023/03/20 00:27:13;;;;;;;4.40;3.03;;;7.10;93.10;;;;;;5052751;28;20021;-43
2023/03/20 00:29:40;;;;;;;5.40;3.50;;;7.10;93.00;;;;;;5034320;28;20112;-43
2023/03/20 00:32:15;;;;;;;5.72;3.20;;;7.10;93.10;;;;;;5032655;28;20032;-43
2023/03/20 00:34:43;;;;;;;5.22;2.60;;;7.10;93.10;;;;;;5033241;28;20384;-43
2023/03/20 00:37:12;;;;;;;4.75;2.60;;;7.20;93.10;;;;;;5052773;28;20033;-44
2023/03/20 00:39:42;;;;;;;5.13;3.47;;;7.10;93.00;;;;;;5052553;28;20112;-43
2023/03/20 00:42:19;;;;;;;6.18;3.92;;;7.10;93.10;;;;;;5052462;28;20021;-43
2023/03/20 00:44:58;;;;;;;5.03;3.40;;;7.00;93.00;;;;;;5044807;28;20060;-43
2023/03/20 00:47:26;;;;;;;4.40;2.55;;;7.10;93.10;;;;;;5032892;28;20117;-42
2023/03/20 00:49:54;;;;;;;3.92;2.58;;;7.10;93.00;;;;;;5032703;28;20029;-43
2023/03/20 00:52:22;;;;;;;4.90;2.90;;;7.10;93.00;;;;;;5032655;28;20040;-43
2023/03/20 00:54:49;;;;;;;5.90;2.75;;;7.10;92.90;;;;;;5032810;28;20398;-43
2023/03/20 00:57:29;;;;;;;5.07;2.80;;;7.00;92.90;;;;;;5032314;28;20030;-45
2023/03/20 01:00:30;;;;;;;4.22;2.50;;;7.10;92.90;;;;;;5032652;28;20029;-44
2023/03/20 01:02:57;;;;;;;4.82;3.83;;;7.00;92.80;;;;;;5024361;28;20079;-43
2023/03/20 01:05:26;;;;;;;7.38;2.95;;;7.10;93.00;;;;;;5034753;28;20466;-46
2023/03/20 01:07:53;;;;;;;5.80;3.38;;;7.10;93.00;;;;;;5036042;28;20091;-43
2023/03/20 01:10:22;;;;;;;5.95;3.65;;;7.00;93.00;;;;;;5036335;28;20041;-42
2023/03/20 01:12:48;;;;;;;5.72;3.25;;;7.10;93.10;;;;;;5040211;28;20033;-44
2023/03/20 01:15:33;;;;;;;8.23;3.83;;;7.10;92.90;;;;;;5055022;28;20028;-44
2023/03/20 01:17:59;;;;;;;6.75;4.07;;;7.10;93.00;;;;;;5050589;28;20458;-44
2023/03/20 01:20:28;;;;;;;6.47;4.00;;;7.00;93.10;;;;;;5035733;28;20071;-44
2023/03/20 01:22:55;;;;;;;7.10;4.22;;;7.10;93.10;;;;;;5035941;28;20401;-44
2023/03/20 01:25:22;;;;;;;7.90;4.78;;;7.10;93.20;;;;;;5035953;28;20037;-44
2023/03/20 01:27:53;;;;;;;7.00;4.00;;;7.10;93.10;;;;;;5035793;28;20021;-44
2023/03/20 01:30:37;;;;;;;6.78;4.38;;;7.10;93.30;;;;;;5035540;28;20021;-44
2023/03/20 01:33:17;;;;;;;8.43;4.35;;;7.10;93.30;;;;;;5049493;28;20112;-46
2023/03/20 01:35:45;;;;;;;6.85;4.03;;;7.10;93.30;;;;;;5051332;28;20034;-44
2023/03/20 01:38:23;;;;;;;7.32;4.45;;;7.10;93.30;;;;;;5035403;28;20120;-44
2023/03/20 01:41:19;;;;;;;8.55;3.65;;;7.10;93.40;;;;;;5035591;28;20095;-47
2023/03/20 01:43:46;;;;;;;6.07;3.13;;;7.10;93.40;;;;;;5035779;28;20033;-44
2023/03/20 01:46:27;;;;;;;4.95;3.17;;;7.10;93.30;;;;;;5035421;28;20091;-46
2023/03/20 01:49:17;;;;;;;5.53;3.28;;;7.00;93.30;;;;;;5035264;28;20041;-45
2023/03/20 01:51:45;;;;;;;7.30;3.25;;;7.00;93.40;;;;;;5035096;28;20069;-45
2023/03/20 01:54:36;;;;;;;6.38;3.50;;;7.00;93.40;;;;;;5034694;28;20577;-44
2023/03/20 01:57:23;;;;;;;4.75;3.10;;;7.10;93.40;;;;;;5034750;28;20037;-47
2023/03/20 01:59:56;;;;;;;7.25;3.10;;;7.10;93.50;;;;;;5035178;28;20031;-46
2023/03/20 02:02:29;;;;;;;6.50;3.22;;;7.10;93.50;;;;;;5034131;28;20033;-44
2023/03/20 02:05:00;;;;;;;5.75;3.63;;;7.10;93.50;;;;;;5033916;28;20389;-45
2023/03/20 02:07:30;;;;;;;4.65;3.00;;;7.10;93.50;;;;;;5034844;28;20025;-46
2023/03/20 02:09:56;;;;;;;7.15;3.05;;;7.10;93.50;;;;;;5033905;28;20025;-46
2023/03/20 02:12:24;;;;;;;4.85;3.22;;;7.10;93.50;;;;;;5034819;28;20044;-46
2023/03/20 02:14:52;;;;;;;5.68;4.13;;;7.20;93.50;;;;;;5034697;28;20113;-48
2023/03/20 02:17:19;;;;;;;7.53;4.40;;;7.20;93.50;;;;;;5034552;28;20057;-48
2023/03/20 02:20:11;;;;;;;5.72;4.22;;;7.20;93.40;;;;;;5034694;28;20029;-45
2023/03/20 02:23:24;;;;;;;5.93;3.72;;;7.20;93.50;;;;;;5033771;28;20033;-45
2023/03/20 02:26:29;;;;;;;8.50;4.28;;;7.20;93.50;;;;;;5033344;28;20075;-48
2023/03/20 02:29:17;;;;;;;5.50;3.53;;;7.20;93.40;;;;;;5051972;28;20037;-46
2023/03/20 02:32:21;;;;;;;7.97;4.60;;;7.20;93.50;;;;;;5054167;28;20411;-45
2023/03/20 02:35:05;;;;;;;7.47;4.85;;;7.20;93.40;;;;;;5054345;28;20029;-45
2023/03/20 02:37:46;;;;;;;7.05;3.97;;;7.20;93.40;;;;;;5053355;28;20024;-46
2023/03/20 02:40:41;;;;;;;7.10;4.40;;;7.20;93.40;;;;;;5052295;28;20025;-45
2023/03/20 02:43:21;;;;;;;9.23;6.07;;;7.20;93.50;;;;;;5034224;28;20022;-46
2023/03/20 02:45:58;;;;;;;11.90;6.85;;;7.20;93.40;;;;;;5034182;28;20029;-45
2023/03/20 02:48:49;;;;;;;10.95;6.28;;;7.20;93.40;;;;;;5033188;28;20040;-45
2023/03/20 02:51:36;;;;;;;9.68;6.55;;;7.20;93.50;;;;;;5034291;28;20037;-47
2023/03/20 02:54:35;;;;;;;8.85;6.40;;;7.20;93.50;;;;;;5034162;28;20025;-47
2023/03/20 02:57:26;;;;;;;16.63;8.63;;;7.20;93.50;;;;;;5037296;28;20052;-45
2023/03/20 03:00:34;;;;;;;12.07;7.55;;;7.20;93.50;;;;;;5052870;28;20284;-45
2023/03/20 03:03:14;;;;;;;12.10;6.97;;;7.20;93.60;;;;;;5051811;28;20178;-45
2023/03/20 03:06:05;;;;;;;10.85;6.05;;;7.20;93.60;;;;;;5033773;28;20152;-47
2023/03/20 03:08:40;;;;;;;9.48;6.65;;;7.20;93.50;;;;;;5032563;28;20550;-44
2023/03/20 03:11:08;;;;;;;8.90;5.78;;;7.20;93.70;;;;;;5049327;28;20053;-46
2023/03/20 03:13:39;;;;;;;13.40;6.78;;;7.20;93.70;;;;;;5049388;28;20346;-45
2023/03/20 03:16:11;;;;;;;10.45;6.82;;;7.30;93.70;;;;;;5033237;28;20104;-45
2023/03/20 03:18:41;;;;;;;10.57;6.55;;;7.20;93.70;;;;;;5033747;28;20029;-44
2023/03/20 03:21:14;;;;;;;12.82;6.97;;;7.20;93.70;;;;;;5032668;28;20357;-44
2023/03/20 03:24:01;;;;;;;11.20;6.40;;;7.20;93.60;;;;;;5032439;28;20108;-44
2023/03/20 03:26:36;;;;;;;10.60;6.43;;;7.20;93.70;;;;;;5031927;28;20367;-46
2023/03/20 03:29:14;;;;;;;11.20;7.00;;;7.20;93.70;;;;;;5033518;28;20029;-45
2023/03/20 03:31:43;;;;;;;8.93;6.85;;;7.20;93.70;;;;;;5033437;28;20497;-44
2023/03/20 03:34:16;;;;;;;14.57;8.10;;;7.20;93.70;;;;;;5039603;28;20094;-45
2023/03/20 03:37:08;;;;;;;11.75;6.65;;;7.20;93.60;;;;;;5053215;28;20416;-45
2023/03/20 03:40:01;;;;;;;11.52;7.38;;;7.20;93.60;;;;;;5052053;28;20053;-45
2023/03/20 03:42:35;;;;;;;15.10;7.90;;;7.30;93.50;;;;;;5052306;28;20035;-45
2023/03/20 03:45:25;;;;;;;12.82;7.90;;;7.30;93.50;;;;;;5033214;28;20025;-44
2023/03/20 03:48:13;;;;;;;14.20;8.80;;;7.20;93.50;;;;;;5032303;28;20017;-44
2023/03/20 03:50:47;;;;;;;14.48;8.38;;;7.20;93.50;;;;;;5017273;28;20029;-44
2023/03/20 03:53:25;;;;;;;11.43;8.10;;;7.20;93.50;;;;;;5033093;28;20021;-44
2023/03/20 03:55:56;;;;;;;13.50;7.72;;;7.30;93.50;;;;;;5033243;28;20565;-45
2023/03/20 03:58:30;;;;;;;12.10;7.78;;;7.30;93.50;;;;;;5033237;28;20079;-45
2023/03/20 04:01:01;;;;;;;13.65;7.43;;;7.30;93.40;;;;;;5031864;28;20041;-45
2023/03/20 04:03:32;;;;;;;14.77;7.65;;;7.30;93.40;;;;;;5032280;28;20033;-44
2023/03/20 04:06:05;;;;;;;11.57;7.05;;;7.30;93.30;;;;;;5033135;28;20022;-45
2023/03/20 04:08:32;;;;;;;10.25;7.82;;;7.30;93.30;;;;;;5032957;28;20099;-43
2023/03/20 04:10:58;;;;;;;10.27;6.50;;;7.30;93.20;;;;;;5031980;28;20033;-44
2023/03/20 04:13:24;;;;;;;10.75;6.40;;;7.20;93.20;;;;;;5032777;28;20113;-44
2023/03/20 04:15:50;;;;;;;12.05;6.22;;;7.30;93.20;;;;;;5032049;28;20060;-44
2023/03/20 04:18:20;;;;;;;9.75;6.35;;;7.30;93.20;;;;;;5032139;28;20064;-44
2023/03/20 04:20:47;;;;;;;11.77;7.15;;;7.30;93.10;;;;;;5032439;28;20120;-46
2023/03/20 04:23:14;;;;;;;11.95;6.55;;;7.30;93.00;;;;;;5032530;28;20076;-44
2023/03/20 04:25:41;;;;;;;13.98;6.35;;;7.30;93.00;;;;;;5032507;28;20439;-45
2023/03/20 04:28:10;;;;;;;9.23;6.60;;;7.30;93.00;;;;;;5032108;28;20095;-44
2023/03/20 04:30:37;;;;;;;12.80;7.55;;;7.30;93.00;;;;;;5032933;28;20018;-44
2023/03/20 04:33:04;;;;;;;11.77;6.72;;;7.30;92.90;;;;;;5032700;28;20076;-45
2023/03/20 04:35:31;;;;;;;11.95;7.32;;;7.30;92.90;;;;;;5032777;28;20026;-44
2023/03/20 04:37:57;;;;;;;11.30;6.50;;;7.30;92.90;;;;;;5032473;28;20032;-44
2023/03/20 04:40:27;;;;;;;14.50;7.25;;;7.30;92.80;;;;;;5036102;28;20569;-44
2023/03/20 04:42:54;;;;;;;11.07;7.25;;;7.30;92.80;;;;;;5036582;28;20026;-45
2023/03/20 04:45:20;;;;;;;10.90;7.38;;;7.30;92.80;;;;;;5036257;28;20650;-44
2023/03/20 04:47:47;;;;;;;11.52;7.18;;;7.30;92.80;;;;;;5036293;28;20050;-44
2023/03/20 04:50:14;;;;;;;12.93;8.40;;;7.30;92.80;;;;;;5035216;28;20029;-48
2023/03/20 04:52:42;;;;;;;17.67;7.93;;;7.30;92.80;;;;;;5036196;28;20860;-45
2023/03/20 04:55:09;;;;;;;10.52;7.20;;;7.40;92.80;;;;;;5036693;28;20033;-44
2023/03/20 04:57:35;;;;;;;12.23;7.60;;;7.30;92.70;;;;;;5045298;28;20078;-44
2023/03/20 05:00:03;;;;;;;9.63;7.03;;;7.30;92.60;;;;;;5054976;28;20025;-45
2023/03/20 05:02:30;;;;;;;11.07;6.93;;;7.30;92.50;;;;;;5050778;28;20048;-44
2023/03/20 05:04:56;;;;;;;13.05;7.70;;;7.30;92.50;;;;;;5035257;28;20038;-44
2023/03/20 05:07:26;;;;;;;13.05;7.88;;;7.30;92.50;;;;;;5042345;28;20025;-44
2023/03/20 05:09:53;;;;;;;11.18;8.20;;;7.30;92.50;;;;;;5046310;28;20038;-44
2023/03/20 05:12:21;;;;;;;11.52;7.55;;;7.30;92.40;;;;;;5034696;28;20100;-44
2023/03/20 05:14:49;;;;;;;11.43;7.10;;;7.30;92.50;;;;;;5035802;28;20359;-44
2023/03/20 05:17:18;;;;;;;11.98;8.15;;;7.30;92.50;;;;;;5035330;28;20311;-44
2023/03/20 05:19:45;;;;;;;13.35;6.85;;;7.30;92.50;;;;;;5036620;28;20033;-44
2023/03/20 05:22:16;;;;;;;14.38;7.75;;;7.30;92.50;;;;;;5035893;28;20029;-44
2023/03/20 05:24:45;;;;;;;13.02;7.43;;;7.30;92.40;;;;;;5036435;28;20116;-44
2023/03/20 05:27:12;;;;;;;12.65;6.97;;;7.30;92.40;;;;;;5035876;28;20159;-47
2023/03/20 05:29:39;;;;;;;13.25;6.68;;;7.30;92.50;;;;;;5041678;28;20041;-43
2023/03/20 05:32:09;;;;;;;12.90;7.78;;;7.30;92.50;;;;;;5051965;28;20367;-47
2023/03/20 05:34:35;;;;;;;10.95;7.07;;;7.30;92.50;;;;;;5036000;28;20340;-44
2023/03/20 05:37:02;;;;;;;13.07;7.40;;;7.30;92.50;;;;;;5035772;28;20038;-46
2023/03/20 05:39:30;;;;;;;14.35;8.05;;;7.40;92.60;;;;;;5035319;28;20040;-45
2023/03/20 05:41:57;;;;;;;10.82;7.97;;;7.40;92.50;;;;;;5035509;28;20045;-44
2023/03/20 05:44:24;;;;;;;15.07;9.57;;;7.40;92.50;;;;;;5034189;28;20039;-44
2023/03/20 05:46:51;;;;;;;12.40;8.43;;;7.40;92.40;;;;;;5035558;28;20025;-45
2023/03/20 05:49:17;;;;;;;12.77;7.38;;;7.40;92.50;;;;;;5034883;28;20060;-45
2023/03/20 05:51:44;;;;;;;14.80;8.25;;;7.40;92.40;;;;;;5035288;28;20660;-44
2023/03/20 05:54:10;;;;;;;13.55;8.23;;;7.30;92.40;;;;;;5035130;28;20095;-45
2023/03/20 05:56:36;;;;;;;15.68;9.00;;;7.40;92.50;;;;;;5035517;28;20830;-44
2023/03/20 05:59:03;;;;;;;15.50;8.63;;;7.40;92.50;;;;;;5034974;28;20029;-45
2023/03/20 06:01:30;;;;;;;15.57;8.63;;;7.40;92.50;;;;;;5034365;28;20029;-43
2023/03/20 06:03:57;;;;;;;15.35;7.82;;;7.40;92.50;;;;;;5034794;28;20357;-45
2023/03/20 06:06:23;;;;;;;13.98;8.15;;;7.40;92.50;;;;;;5034942;28;20021;-43
2023/03/20 06:08:50;;;;;;;13.30;8.25;;;7.40;92.50;;;;;;5034786;28;20040;-46
2023/03/20 06:11:17;;;;;;;18.02;9.50;;;7.40;92.50;;;;;;5035027;28;20034;-44
2023/03/20 06:13:42;;;;;;;13.27;8.25;;;7.50;92.50;;;;;;5034823;28;20033;-44
2023/03/20 06:16:08;;;;;;;15.98;8.88;;;7.50;92.50;;;;;;5034610;28;20389;-44
2023/03/20 06:18:35;;;;;;;14.77;8.45;;;7.50;92.50;;;;;;5034608;28;20447;-44
2023/03/20 06:21:04;;;;;;;15.25;8.90;;;7.50;92.50;;;;;;5034869;28;20031;-44
2023/03/20 06:23:31;;;;;;;17.58;8.32;;;7.50;92.40;;;;;;5033875;28;20041;-43
2023/03/20 06:25:58;;;;;;;18.25;9.63;;;7.60;92.40;;;;;;5047816;28;20048;-44
2023/03/20 06:28:25;;;;;;;16.23;9.85;;;7.60;92.40;;;;;;5054363;28;20045;-48
2023/03/20 06:30:54;;;;;;;14.70;9.02;;;7.60;92.30;;;;;;5052716;28;20024;-45
2023/03/20 06:33:20;;;;;;;16.52;8.57;;;7.60;92.30;;;;;;5034524;28;20471;-45
2023/03/20 06:35:47;;;;;;;14.57;10.05;;;7.70;92.30;;;;;;5033229;28;20121;-44
2023/03/20 06:38:14;;;;;;;19.50;10.07;;;7.70;92.20;;;;;;5034065;28;20036;-44
2023/03/20 06:40:41;;;;;;;19.98;11.80;;;7.70;92.20;;;;;;5033886;28;20028;-44
2023/03/20 06:43:11;;;;;;;15.95;10.07;;;7.70;92.20;;;;;;5032906;28;20017;-43
2023/03/20 06:45:38;;;;;;;18.83;9.38;;;7.70;92.20;;;;;;5033006;28;20026;-43
2023/03/20 06:48:08;;;;;;;15.02;9.95;;;7.70;92.20;;;;;;5033231;28;20037;-44
2023/03/20 06:50:36;;;;;;;15.43;9.30;;;7.70;92.10;;;;;;5034311;28;20443;-43
2023/03/20 06:53:05;;;;;;;12.50;9.20;;;7.70;92.10;;;;;;5034033;28;20025;-44
2023/03/20 06:55:39;;;;;;;;;;;7.70;92.10;;;;;;5034667;28;20021;-47
2023/03/20 06:58:06;;;;;;;16.00;10.90;;;7.70;92.10;;;;;;5034071;28;19912;-47
2023/03/20 07:00:33;;;;;;;17.15;10.85;;;7.70;92.00;;;;;;5034226;28;20029;-44
2023/03/20 07:03:03;;;;;;;16.67;10.55;;;7.80;92.00;;;;;;5033235;28;20025;-43
2023/03/20 07:05:31;;;;;;;15.65;9.50;;;7.80;92.00;;;;;;5034137;28;20505;-45
2023/03/20 07:07:58;;;;;;;15.95;11.10;;;7.80;91.90;;;;;;5034000;28;20466;-44
2023/03/20 07:10:27;;;;;;;18.13;10.38;;;7.80;91.80;;;;;;5051343;28;20465;-45
2023/03/20 07:12:54;;;;;;;16.98;10.57;;;7.80;91.80;;;;;;5050122;28;20025;-43
2023/03/20 07:15:21;;;;;;;20.17;10.90;;;7.80;91.70;;;;;;5033637;28;20022;-44
2023/03/20 07:17:48;;;;;;;21.88;10.48;;;7.80;91.70;;;;;;5035433;28;20080;-46
2023/03/20 07:20:14;;;;;;;18.95;12.00;;;7.80;91.50;;;;;;5052520;28;20056;-44
2023/03/20 07:22:40;;;;;;;20.65;10.48;;;7.80;91.40;;;;;;5053441;28;20063;-44
2023/03/20 07:25:10;;;;;;;15.98;10.75;;;7.80;91.40;;;;;;5043596;28;20033;-47
2023/03/20 07:27:39;;;;;;;18.02;11.93;;;7.90;91.30;;;;;;5033672;28;20091;-44
2023/03/20 07:30:07;;;;;;;17.35;10.43;;;7.90;91.20;;;;;;5033423;28;20093;-45
2023/03/20 07:32:34;;;;;;;18.75;11.80;;;7.90;91.00;;;;;;5038988;28;20029;-43
2023/03/20 07:35:01;;;;;;;15.70;10.95;;;7.90;90.90;;;;;;5053442;28;20109;-43
2023/03/20 07:37:29;;;;;;;20.27;9.90;;;7.90;90.80;;;;;;5053438;28;20029;-45
2023/03/20 07:39:55;;;;;;;16.83;10.13;;;7.90;90.70;;;;;;5050946;28;20401;-45
2023/03/20 07:42:22;;;;;;;20.88;10.95;;;7.90;90.50;;;;;;5053168;28;20024;-45
2023/03/20 07:44:49;;;;;;;22.40;11.45;;;8.00;90.50;;;;;;5051767;28;20355;-44
2023/03/20 07:47:15;;;;;;;18.98;11.05;;;7.90;90.30;;;;;;5053075;28;20028;-42
2023/03/20 07:49:45;;;;;;;18.38;11.93;;;8.00;90.40;;;;;;5042616;28;20087;-44
2023/03/20 07:52:12;;;;;;;14.68;9.35;;;8.00;90.30;;;;;;5033136;28;20032;-43
2023/03/20 07:54:40;;;;;;;18.25;12.38;;;8.00;90.20;;;;;;5033512;28;20116;-43
2023/03/20 07:57:06;;;;;;;18.15;10.70;;;8.00;90.20;;;;;;5033168;28;20064;-42
2023/03/20 07:59:33;;;;;;;18.10;10.07;;;8.00;90.10;;;;;;5033197;28;20029;-43
2023/03/20 08:02:00;;;;;;;15.50;10.13;;;8.10;90.00;;;;;;5033240;28;20021;-43
2023/03/20 08:04:27;;;;;;;11.85;9.05;;;8.00;90.00;;;;;;5032929;28;20063;-43
2023/03/20 08:06:55;;;;;;;15.25;9.98;;;8.10;89.80;;;;;;5032218;28;20348;-43
2023/03/20 08:09:20;;;;;;;17.77;10.15;;;8.10;89.50;;;;;;5032048;28;20033;-42
2023/03/20 08:11:47;;;;;;;17.48;10.02;;;8.10;89.40;;;;;;5032212;28;20079;-44
2023/03/20 08:14:14;;;;;;;13.45;9.30;;;8.20;89.50;;;;;;5046081;28;20489;-43
2023/03/20 08:16:43;;;;;;;19.33;10.52;;;8.20;89.40;;;;;;5055882;28;20136;-43
2023/03/20 08:19:12;;;;;;;15.82;9.15;;;8.20;89.20;;;;;;5039278;28;20033;-46
2023/03/20 08:21:39;;;;;;;17.73;9.63;;;8.20;88.90;;;;;;5037495;28;20079;-46
2023/03/20 08:24:05;;;;;;;15.98;9.85;;;8.20;88.90;;;;;;5036870;28;20264;-44
2023/03/20 08:26:31;;;;;;;16.25;9.35;;;8.30;88.80;;;;;;5037019;28;20018;-43
2023/03/20 08:28:58;;;;;;;15.38;10.23;;;8.20;88.60;;;;;;5036089;28;20362;-43
2023/03/20 08:31:25;;;;;;;15.25;10.35;;;8.20;88.60;;;;;;5036914;28;20026;-42
2023/03/20 08:33:52;;;;;;;14.35;9.25;;;8.20;88.50;;;;;;5036406;28;20083;-43
2023/03/20 08:36:20;;;;;;;13.70;8.70;;;8.30;88.30;;;;;;5036690;28;20443;-43
2023/03/20 08:38:47;;;;;;;19.25;9.90;;;8.30;88.20;;;;;;5035928;28;20037;-43
2023/03/20 08:41:18;;;;;;;15.52;9.43;;;8.30;88.30;;;;;;5035838;28;20091;-45
2023/03/20 08:43:46;;;;;;;12.15;8.00;;;8.30;88.20;;;;;;5036148;28;20068;-43
2023/03/20 08:46:13;;;;;;;15.18;8.55;;;8.40;88.00;;;;;;5036924;28;20017;-45
2023/03/20 08:48:40;;;;;;;17.58;9.90;;;8.40;87.70;;;;;;5036639;28;20029;-43
2023/03/20 08:51:07;;;;;;;15.27;8.93;;;8.40;87.70;;;;;;5036476;28;20482;-44
2023/03/20 08:53:36;;;;;;;16.85;8.90;;;8.40;87.60;;;;;;5036584;28;20113;-45
2023/03/20 08:56:04;;;;;;;14.27;8.40;;;8.40;87.70;;;;;;5052268;28;20038;-43
2023/03/20 08:58:31;;;;;;;16.00;9.38;;;8.40;87.60;;;;;;5036617;28;20391;-45
2023/03/20 09:01:05;;;;;;;15.00;8.63;;;8.40;87.20;;;;;;5052117;28;20435;-45
2023/03/20 09:03:32;;;;;;;12.20;9.07;;;8.40;87.00;;;;;;5036090;28;20037;-43
2023/03/20 09:05:59;;;;;;;16.92;9.35;;;8.40;87.20;;;;;;5047703;28;20557;-43
2023/03/20 09:08:30;;;;;;;12.90;8.73;;;8.50;87.30;;;;;;5055490;28;20033;-43
2023/03/20 09:10:57;;;;;;;12.65;9.15;;;8.60;87.20;;;;;;5055773;28;20020;-44
2023/03/20 09:13:24;;;;;;;17.50;8.15;;;8.70;86.90;;;;;;5052531;28;20029;-43
2023/03/20 09:15:52;;;;;;;13.50;8.35;;;8.80;86.90;;;;;;5035888;28;20100;-43
2023/03/20 09:18:20;;;;;;;14.73;8.35;;;8.80;86.70;;;;;;5035842;28;20041;-43
2023/03/20 09:20:48;;;;;;;13.77;8.40;;;8.90;86.60;;;;;;5035898;28;20038;-43
2023/03/20 09:23:17;;;;;;;12.80;8.32;;;9.00;86.70;;;;;;5036183;28;20470;-47
2023/03/20 09:25:45;;;;;;;16.47;8.67;;;9.20;86.80;;;;;;5034972;28;20057;-43
2023/03/20 09:28:12;;;;;;;15.77;8.68;;;9.50;85.90;;;;;;5035888;28;20022;-44
2023/03/20 09:30:44;;;;;;;12.60;7.93;;;9.60;84.80;;;;;;5034624;28;20025;-45
2023/03/20 09:33:11;;;;;;;11.63;7.93;;;9.90;85.00;;;;;;5035736;28;20025;-42
2023/03/20 09:35:37;;;;;;;14.77;8.95;;;10.10;84.60;;;;;;5035636;28;20021;-44
2023/03/20 09:38:05;;;;;;;12.18;8.73;;;10.40;83.20;;;;;;5036333;28;20040;-44
2023/03/20 09:40:43;;;;;;;11.48;8.50;;;10.50;82.70;;;;;;5055606;28;20099;-46
2023/03/20 09:43:22;;;;;;;11.77;7.63;;;10.80;82.30;;;;;;5054276;28;20021;-44
2023/03/20 09:46:25;;;;;;;13.13;8.38;;;10.90;81.80;;;;;;5043703;28;20045;-43
2023/03/20 09:49:17;;;;;;;13.43;8.05;;;11.30;81.30;;;;;;5035475;28;20030;-47
2023/03/20 09:51:53;;;;;;;15.00;7.60;;;11.50;79.30;;;;;;5035485;28;20112;-43
2023/03/20 09:54:55;;;;;;;11.77;7.13;;;11.40;77.40;;;;;;5034542;28;20030;-43
2023/03/20 09:57:28;;;;;;;9.82;7.22;;;11.40;78.20;;;;;;5030238;28;20084;-44
2023/03/20 10:00:03;;;;;;;13.10;7.50;;;11.40;78.20;;;;;;5035328;28;20026;-43
2023/03/20 10:03:01;;;;;;;11.50;7.80;;;11.60;77.30;;;;;;5041565;28;20033;-43
2023/03/20 10:05:43;;;;;;;13.90;8.70;;;11.60;76.90;;;;;;5055122;28;20040;-46
2023/03/20 10:08:17;;;;;;;13.00;7.47;;;11.60;76.00;;;;;;5055089;28;20021;-43
2023/03/20 10:11:05;;;;;;;11.77;7.88;;;11.60;76.30;;;;;;5055027;28;20032;-43
2023/03/20 10:14:00;;;;;;;12.63;7.63;;;11.50;76.10;;;;;;5034929;28;20029;-43
2023/03/20 10:16:46;;;;;;;16.58;7.88;;;11.50;76.20;;;;;;5034658;28;20104;-46
2023/03/20 10:19:28;;;;;;;11.13;7.38;;;11.50;76.10;;;;;;5033767;28;20029;-45
2023/03/20 10:22:15;;;;;;;10.90;7.13;;;11.60;76.80;;;;;;5034729;28;20026;-45
2023/03/20 10:25:02;;;;;;;10.05;7.63;;;11.50;75.70;;;;;;5034566;28;20390;-46
2023/03/20 10:27:47;;;;;;;12.73;7.47;;;11.40;75.90;;;;;;5034805;28;20084;-46
2023/03/20 10:30:33;;;;;;;8.73;6.57;;;11.30;75.90;;;;;;5038186;28;20504;-43
2023/03/20 10:33:17;;;;;;;13.35;7.25;;;11.10;75.90;;;;;;5054422;28;20028;-44
2023/03/20 10:35:58;;;;;;;11.15;7.15;;;11.00;76.60;;;;;;5054375;28;20025;-43
2023/03/20 10:38:43;;;;;;;13.93;7.88;;;10.80;76.90;;;;;;5051254;28;20025;-45
2023/03/20 10:41:17;;;;;;;9.48;6.93;;;10.70;76.90;;;;;;5034574;28;20017;-46
2023/03/20 10:43:48;;;;;;;9.57;6.80;;;10.70;77.20;;;;;;5034351;28;20025;-46
2023/03/20 10:46:39;;;;;;;13.27;7.88;;;10.70;77.50;;;;;;5034112;28;20055;-47
2023/03/20 10:49:28;;;;;;;14.77;8.15;;;10.80;77.90;;;;;;5033586;28;20450;-46
2023/03/20 10:52:00;;;;;;;13.20;8.17;;;10.70;77.40;;;;;;5034159;28;20036;-46
2023/03/20 10:54:45;;;;;;;11.23;7.53;;;10.60;77.70;;;;;;5042891;28;20451;-45
2023/03/20 10:57:26;;;;;;;14.00;8.00;;;10.70;78.20;;;;;;5053183;28;20411;-44
2023/03/20 10:59:57;;;;;;;12.27;7.45;;;10.70;78.30;;;;;;5041486;28;20083;-45
2023/03/20 11:02:31;;;;;;;12.23;8.00;;;10.80;78.10;;;;;;5033998;28;20095;-43
2023/03/20 11:05:20;;;;;;;10.80;7.00;;;10.90;77.80;;;;;;5032532;28;20469;-43
2023/03/20 11:07:51;;;;;;;15.02;8.25;;;10.80;76.80;;;;;;5032768;28;20321;-44
2023/03/20 11:10:18;;;;;;;11.38;7.47;;;10.90;77.10;;;;;;5032768;28;20042;-44
2023/03/20 11:12:47;;;;;;;11.38;6.88;;;10.80;77.00;;;;;;5033881;28;20340;-44
2023/03/20 11:15:33;;;;;;;13.53;7.33;;;10.80;77.60;;;;;;5033743;28;20380;-43
2023/03/20 11:18:03;;;;;;;11.05;7.30;;;10.90;77.70;;;;;;5033577;28;20045;-44
2023/03/20 11:20:43;;;;;;;9.77;6.63;;;10.90;78.00;;;;;;5033298;28;20051;-45
2023/03/20 11:23:16;;;;;;;11.48;7.97;;;10.90;77.70;;;;;;5033780;28;20482;-44
2023/03/20 11:26:04;;;;;;;13.57;8.27;;;10.90;76.80;;;;;;5048871;28;20106;-43
2023/03/20 11:28:54;;;;;;;13.30;7.00;;;10.90;77.00;;;;;;5032657;28;20736;-44
2023/03/20 11:31:47;;;;;;;9.52;6.90;;;11.00;76.40;;;;;;5033474;28;20041;-44
2023/03/20 11:34:22;;;;;;;11.20;6.38;;;10.80;76.20;;;;;;5033519;28;20392;-45
2023/03/20 11:36:58;;;;;;;10.43;7.00;;;10.90;76.80;;;;;;5033438;28;20064;-44
2023/03/20 11:39:31;;;;;;;11.75;7.72;;;10.90;77.00;;;;;;5033154;28;20072;-44
2023/03/20 11:42:04;;;;;;;10.90;7.07;;;10.90;77.40;;;;;;5033147;28;20049;-44
2023/03/20 11:44:55;;;;;;;9.32;6.82;;;10.90;77.10;;;;;;5033015;28;20027;-45
2023/03/20 11:47:26;;;;;;;11.82;6.95;;;10.90;76.90;;;;;;5032395;28;20329;-45
2023/03/20 11:50:02;;;;;;;13.30;8.68;;;10.80;76.90;;;;;;5032712;28;20372;-46
2023/03/20 11:52:39;;;;;;;12.73;7.55;;;10.80;77.30;;;;;;5033060;28;20087;-44
2023/03/20 11:55:33;;;;;;;12.25;7.28;;;10.70;77.30;;;;;;5032995;28;20362;-44
2023/03/20 11:58:05;;;;;;;9.45;6.07;;;10.70;77.50;;;;;;5033146;28;20453;-45
2023/03/20 12:00:50;;;;;;;12.63;6.50;;;10.50;77.10;;;;;;5032286;28;20129;-44
2023/03/20 12:03:54;;;;;;;11.95;6.90;;;10.50;77.00;;;;;;5033059;28;20021;-43
2023/03/20 12:06:50;;;;;;;13.15;7.07;;;10.70;76.70;;;;;;5033238;28;20045;-44
2023/03/20 12:09:38;;;;;;;13.93;7.28;;;10.70;76.20;;;;;;5023147;28;20041;-45
2023/03/20 12:12:33;;;;;;;11.50;6.38;;;10.80;76.80;;;;;;5033048;28;20087;-43
2023/03/20 12:15:23;;;;;;;13.48;7.18;;;10.90;76.50;;;;;;5031862;28;20366;-44
2023/03/20 12:18:12;;;;;;;14.23;7.55;;;11.00;76.40;;;;;;5045978;28;20368;-48
2023/03/20 12:21:17;;;;;;;14.73;7.68;;;11.20;75.80;;;;;;5033075;28;20037;-46
2023/03/20 12:24:04;;;;;;;12.18;7.53;;;11.40;76.30;;;;;;5028303;28;20056;-47
2023/03/20 12:26:53;;;;;;;12.55;7.38;;;11.60;76.70;;;;;;5032312;28;20548;-46
2023/03/20 12:29:35;;;;;;;9.00;6.30;;;11.80;75.70;;;;;;5032787;28;20032;-44
2023/03/20 12:32:02;;;;;;;12.10;7.97;;;11.70;75.00;;;;;;5032776;28;20053;-45
2023/03/20 12:34:34;;;;;;;11.82;7.05;;;11.70;74.90;;;;;;5032762;28;20044;-44
2023/03/20 12:37:01;;;;;;;11.93;7.65;;;11.60;75.30;;;;;;5031971;28;20043;-46
2023/03/20 12:39:40;;;;;;;11.70;7.65;;;11.40;75.30;;;;;;5032821;28;20033;-44
2023/03/20 12:42:30;;;;;;;20.58;7.72;;;11.20;76.10;;;;;;5032754;28;20018;-46
2023/03/20 12:45:26;;;;;;;12.52;7.95;;;11.20;76.70;;;;;;5032881;28;20072;-45
2023/03/20 12:48:19;;;;;;;14.15;8.68;;;11.10;77.30;;;;;;5032440;28;20067;-44
2023/03/20 12:51:06;;;;;;;13.38;7.35;;;10.90;76.90;;;;;;5032839;28;20079;-46
2023/03/20 12:54:10;;;;;;;15.20;7.70;;;10.90;77.60;;;;;;5032517;28;20021;-47
2023/03/20 12:56:57;;;;;;;11.80;6.68;;;10.70;78.80;;;;;;5032567;28;20040;-44
2023/03/20 12:59:53;;;;;;;10.18;6.95;;;10.80;78.80;;;;;;5033190;28;20029;-45
2023/03/20 13:02:32;;;;;;;11.52;7.13;;;10.90;78.60;;;;;;5034340;28;20422;-46
2023/03/20 13:05:16;;;;;;;15.68;6.93;;;10.90;78.10;;;;;;5036226;28;20109;-46
2023/03/20 13:07:52;;;;;;;19.65;6.55;;;10.90;77.40;;;;;;5036226;28;20044;-46
2023/03/20 13:10:47;;;;;;;11.35;7.43;;;10.90;77.60;;;;;;5046866;28;20025;-45
2023/03/20 13:13:47;;;;;;;11.93;6.47;;;10.80;77.50;;;;;;5056227;28;20379;-44
2023/03/20 13:16:44;;;;;;;13.02;6.60;;;10.70;77.80;;;;;;5054712;28;20047;-44
2023/03/20 13:19:24;;;;;;;11.68;7.28;;;10.70;78.40;;;;;;5036089;28;20602;-44
2023/03/20 13:22:15;;;;;;;15.20;7.70;;;10.60;80.00;;;;;;5035056;28;20083;-44
2023/03/20 13:25:14;;;;;;;22.88;7.50;;;10.60;80.80;;;;;;5053704;28;20025;-44